Kerikeri Airport


Codes: NZKK/KKE
Name: Kerikeri Airport
City: Kerikeri
Country: New Zealand
Elevation: 492 ft.
Website:
Wikipedia:

Photos at Kerikeri Airport


   Photos courtesy of SpottingLog. You can add your own sightings and photos by signing up for a free trial today.



No photos found.

Weather at Kerikeri Airport


Time (UTC)DescriptionTempratureWindCloud coverageVisibilityPressureHumidity
21-Feb-2024 03:00Scattered Clouds25°C7 mph, NE38%10000m1022hPa62%
21-Feb-2024 06:00Scattered Clouds24°C4 mph, NE45%10000m1022hPa65%
21-Feb-2024 09:00Broken Clouds20°C2 mph, SE78%10000m1024hPa80%
21-Feb-2024 12:00Overcast Clouds16°C2 mph, S99%10000m1025hPa77%
21-Feb-2024 15:00Overcast Clouds16°C2 mph, S100%10000m1024hPa71%
21-Feb-2024 18:00Overcast Clouds16°C2 mph, SE100%10000m1025hPa73%
21-Feb-2024 21:00Overcast Clouds19°C2 mph, NE98%10000m1026hPa63%
22-Feb-2024 00:00Overcast Clouds23°C4 mph, NE94%10000m1024hPa53%
22-Feb-2024 03:00Overcast Clouds23°C7 mph, NE100%10000m1023hPa51%
22-Feb-2024 06:00Broken Clouds20°C4 mph, NE83%10000m1024hPa64%
22-Feb-2024 09:00Overcast Clouds17°C0 mph, NW95%10000m1025hPa85%
22-Feb-2024 12:00Overcast Clouds15°C2 mph, SW97%10000m1025hPa92%
22-Feb-2024 15:00Overcast Clouds14°C2 mph, SW100%10000m1023hPa94%
22-Feb-2024 18:00Overcast Clouds14°C2 mph, SW100%10000m1023hPa91%
22-Feb-2024 21:00Overcast Clouds22°C2 mph, SE98%10000m1023hPa56%
23-Feb-2024 00:00Overcast Clouds26°C7 mph, NE91%10000m1021hPa45%
23-Feb-2024 03:00Scattered Clouds25°C7 mph, N36%10000m1020hPa49%
23-Feb-2024 06:00Broken Clouds22°C2 mph, N56%10000m1020hPa62%
23-Feb-2024 09:00Broken Clouds18°C2 mph, W73%10000m1022hPa82%
23-Feb-2024 12:00Scattered Clouds15°C2 mph, SW40%10000m1022hPa94%
23-Feb-2024 15:00Clear Sky14°C2 mph, SW8%10000m1020hPa95%
23-Feb-2024 18:00Few Clouds14°C2 mph, SW11%10000m1020hPa96%
23-Feb-2024 21:00Few Clouds22°C2 mph, N12%10000m1021hPa57%
24-Feb-2024 00:00Few Clouds26°C7 mph, N11%10000m1019hPa42%
24-Feb-2024 03:00Clear Sky26°C9 mph, N8%10000m1017hPa45%
24-Feb-2024 06:00Clear Sky23°C7 mph, NW8%10000m1017hPa59%
24-Feb-2024 09:00Clear Sky17°C2 mph, NW7%10000m1018hPa94%
24-Feb-2024 12:00Few Clouds16°C2 mph, NW11%10000m1018hPa97%
24-Feb-2024 15:00Few Clouds16°C2 mph, W21%10000m1017hPa98%
24-Feb-2024 18:00Scattered Clouds17°C2 mph, NW34%10000m1017hPa98%
24-Feb-2024 21:00Overcast Clouds22°C7 mph, NW100%10000m1017hPa74%
25-Feb-2024 00:00Overcast Clouds25°C9 mph, N94%10000m1014hPa51%
25-Feb-2024 03:00Overcast Clouds25°C11 mph, NW99%10000m1013hPa51%
25-Feb-2024 06:00Overcast Clouds22°C9 mph, NW99%10000m1013hPa70%
25-Feb-2024 09:00Overcast Clouds19°C4 mph, NW100%10000m1013hPa86%
25-Feb-2024 12:00Light Rain18°C7 mph, NW100%10000m1013hPa97%
25-Feb-2024 15:00Light Rain19°C7 mph, NW100%10000m1012hPa97%
25-Feb-2024 18:00Light Rain19°C2 mph, NW100%10000m1012hPa98%
25-Feb-2024 21:00Light Rain20°C2 mph, W100%10000m1013hPa93%
26-Feb-2024 00:00Light Rain21°C4 mph, NW99%10000m1013hPa83%